Time;durP1;ratioP1;P1;durP2;ratioP2;P2;SDS_P1;SDS_P2;PMS_P1;PMS_P2;Temp;Humidity;BMP_temperature;BMP_pressure;BME280_temperature;BME280_humidity;BME280_pressure;Samples;Min_cycle;Max_cycle;Signal;HPM_P1;HPM_P2
2022/08/21 00:01:51;;;;;;;;;3.50;3.50;;;;;20.57;50.03;101487.69;5075928;28;67016;-77
2022/08/21 00:04:17;;;;;;;;;4.50;4.50;;;;;20.56;50.06;101482.50;5077426;28;52314;-77
2022/08/21 00:06:42;;;;;;;;;5.50;4.00;;;;;20.55;49.78;101484.28;5078558;27;45167;-77
2022/08/21 00:09:08;;;;;;;;;3.00;3.00;;;;;20.50;50.10;101475.78;5077838;28;57747;-77
2022/08/21 00:11:36;;;;;;;;;4.75;3.00;;;;;20.53;50.47;101491.47;5078391;27;47092;-77
2022/08/21 00:14:02;;;;;;;;;3.50;2.75;;;;;20.52;51.18;101483.63;5078270;27;46849;-77
2022/08/21 00:16:28;;;;;;;;;3.00;3.00;;;;;20.49;51.04;101485.50;5078461;27;45440;-77
2022/08/21 00:18:53;;;;;;;;;3.25;3.00;;;;;20.46;52.13;101487.47;5077676;28;62356;-77
2022/08/21 00:21:19;;;;;;;;;2.00;2.00;;;;;20.41;51.38;101482.47;5076961;27;46545;-77
2022/08/21 00:23:44;;;;;;;;;6.25;3.25;;;;;20.39;51.75;101492.28;5078020;27;51790;-77
2022/08/21 00:26:09;;;;;;;;;5.00;4.00;;;;;20.31;51.70;101476.84;5078587;27;45280;-77
2022/08/21 00:28:35;;;;;;;;;5.00;3.75;;;;;20.31;50.99;101484.78;5077627;27;45351;-77
2022/08/21 00:31:00;;;;;;;;;3.50;3.00;;;;;20.28;51.32;101474.41;5077108;27;70211;-77
2022/08/21 00:33:26;;;;;;;;;4.75;3.00;;;;;20.26;51.47;101471.00;5076639;27;45608;-77
2022/08/21 00:35:51;;;;;;;;;4.00;3.00;;;;;20.27;51.66;101469.19;5078028;27;45458;-78
2022/08/21 00:38:17;;;;;;;;;2.25;2.25;;;;;20.25;50.77;101463.16;5076774;28;45318;-77
2022/08/21 00:40:49;;;;;;;;;3.00;2.00;;;;;20.25;51.13;101473.72;5077757;27;45461;-77
2022/08/21 00:43:17;;;;;;;;;7.25;3.25;;;;;20.22;51.28;101463.31;5076670;27;45437;-77
2022/08/21 00:45:44;;;;;;;;;4.75;3.75;;;;;20.20;51.09;101466.03;5077644;27;45416;-77
2022/08/21 00:48:10;;;;;;;;;6.50;4.00;;;;;20.17;51.70;101458.31;5078062;27;45253;-77
2022/08/21 00:50:39;;;;;;;;;2.00;2.00;;;;;20.18;51.96;101460.00;5059511;28;46199;-77
2022/08/21 00:53:05;;;;;;;;;2.75;2.00;;;;;20.17;51.67;101455.66;5076501;28;45374;-77
2022/08/21 00:55:31;;;;;;;;;4.50;3.00;;;;;20.15;51.51;101454.03;5076627;28;45350;-77
2022/08/21 00:57:58;;;;;;;;;3.00;3.00;;;;;20.16;52.48;101464.53;5076420;28;45343;-77
2022/08/21 01:00:30;;;;;;;;;3.00;3.00;;;;;20.13;51.79;101458.56;5075996;28;45675;-77
2022/08/21 01:02:57;;;;;;;;;4.25;3.50;;;;;20.10;52.53;101455.16;5076607;27;45764;-77
2022/08/21 01:05:22;;;;;;;;;4.25;4.25;;;;;20.06;53.45;101458.09;5076603;27;45436;-77
2022/08/21 01:07:48;;;;;;;;;5.00;4.00;;;;;20.02;52.72;101465.34;5076784;28;45510;-77
2022/08/21 01:10:14;;;;;;;;;4.25;2.25;;;;;20.01;53.19;101468.06;5075856;28;60252;-77
2022/08/21 01:12:40;;;;;;;;;3.75;3.00;;;;;20.02;52.77;101470.63;5077365;27;45434;-77
2022/08/21 01:15:07;;;;;;;;;5.50;3.00;;;;;20.02;52.40;101470.63;5076237;28;45366;-77
2022/08/21 01:17:33;;;;;;;;;4.50;3.00;;;;;20.02;53.01;101467.97;5076136;28;45319;-77
2022/08/21 01:19:59;;;;;;;;;4.00;3.00;;;;;20.00;52.56;101464.56;5076022;27;45474;-77
2022/08/21 01:22:26;;;;;;;;;5.00;4.00;;;;;19.94;52.37;101458.78;5077217;27;45295;-77
2022/08/21 01:24:51;;;;;;;;;4.50;3.25;;;;;19.99;53.96;101464.66;5076239;28;45446;-78
2022/08/21 01:27:16;;;;;;;;;6.00;3.25;;;;;19.94;53.96;101464.91;5077466;28;45435;-77
2022/08/21 01:29:47;;;;;;;;;4.75;2.00;;;;;19.91;53.15;101463.31;5075858;28;69830;-77
2022/08/21 01:32:15;;;;;;;;;4.00;2.50;;;;;19.94;53.54;101475.47;5076899;27;45709;-76
2022/08/21 01:34:43;;;;;;;;;3.75;3.00;;;;;19.91;53.66;101475.66;5077053;27;45440;-76
2022/08/21 01:37:09;;;;;;;;;4.25;2.50;;;;;19.86;54.15;101478.56;5077156;27;45418;-77
2022/08/21 01:39:35;;;;;;;;;7.00;3.75;;;;;19.84;53.95;101475.16;5076279;28;46524;-77
2022/08/21 01:42:01;;;;;;;;;3.00;2.75;;;;;19.79;53.65;101482.47;5076865;27;45309;-77
2022/08/21 01:44:26;;;;;;;;;5.00;4.00;;;;;19.76;54.55;101476.50;5076280;28;54116;-77
2022/08/21 01:46:53;;;;;;;;;3.00;1.00;;;;;19.74;53.85;101476.59;5077002;27;45442;-77
2022/08/21 01:49:18;;;;;;;;;3.00;3.00;;;;;19.68;53.53;101472.47;5076598;27;46377;-77
2022/08/21 01:51:44;;;;;;;;;2.75;2.75;;;;;19.70;53.66;101472.38;5076860;27;45326;-76
2022/08/21 01:54:10;;;;;;;;;4.00;4.00;;;;;19.68;53.50;101468.97;5075329;27;45309;-77
2022/08/21 01:56:41;;;;;;;;;3.00;3.00;;;;;19.72;53.06;101462.59;5076085;27;62653;-77
2022/08/21 01:59:07;;;;;;;;;5.00;3.75;;;;;19.70;53.66;101470.59;5074986;28;46116;-77
2022/08/21 02:01:32;;;;;;;;;3.75;3.00;;;;;19.66;53.70;101469.06;5076612;27;45790;-76
2022/08/21 02:03:59;;;;;;;;;5.00;4.00;;;;;19.67;53.40;101459.38;5076742;27;45403;-77
2022/08/21 02:06:25;;;;;;;;;3.25;3.25;;;;;19.64;54.09;101463.00;5076556;27;45472;-77
2022/08/21 02:08:50;;;;;;;;;5.50;3.50;;;;;19.61;54.58;101463.19;5076458;27;45401;-77
2022/08/21 02:11:16;;;;;;;;;4.75;3.00;;;;;19.59;54.52;101464.22;5075350;27;71824;-77
2022/08/21 02:13:41;;;;;;;;;4.25;4.00;;;;;19.56;55.20;101449.41;5076105;27;45311;-77
2022/08/21 02:16:07;;;;;;;;;5.75;4.00;;;;;19.56;54.09;101454.69;5076532;27;45610;-77
2022/08/21 02:18:33;;;;;;;;;4.00;3.00;;;;;19.52;55.04;101451.34;5074809;28;46272;-77
2022/08/21 02:20:58;;;;;;;;;3.25;2.25;;;;;19.50;54.96;101447.94;5076252;27;45368;-77
2022/08/21 02:23:24;;;;;;;;;4.00;4.00;;;;;19.52;55.04;101454.00;5075361;28;69147;-77
2022/08/21 02:25:49;;;;;;;;;3.00;3.00;;;;;19.51;54.89;101451.44;5075072;27;45437;-77
2022/08/21 02:28:15;;;;;;;;;4.00;3.25;;;;;19.48;54.76;101459.50;5073494;28;73252;-77
2022/08/21 02:30:43;;;;;;;;;5.50;3.75;;;;;19.44;55.17;101460.63;5074656;28;45454;-76
2022/08/21 02:33:10;;;;;;;;;5.25;3.50;;;;;19.38;55.20;101461.81;5074910;28;45272;-77
2022/08/21 02:35:37;;;;;;;;;5.75;4.00;;;;;19.31;55.83;101450.72;5074796;28;45315;-77
2022/08/21 02:38:07;;;;;;;;;7.00;4.00;;;;;19.31;55.71;101458.63;5074684;28;45379;-77
2022/08/21 02:40:35;;;;;;;;;3.25;3.00;;;;;19.27;56.08;101449.19;5074843;28;45468;-77
2022/08/21 02:43:02;;;;;;;;;4.00;4.00;;;;;19.21;56.31;101446.03;5075824;27;45428;-77
2022/08/21 02:45:28;;;;;;;;;2.75;2.75;;;;;19.22;55.42;101445.94;5076184;27;45393;-76
2022/08/21 02:48:14;;;;;;;;;5.25;3.25;;;;;19.24;55.01;101459.06;5074744;28;45467;-77
2022/08/21 02:50:53;;;;;;;;;9.00;2.50;;;;;19.24;56.19;101461.69;5077017;27;45813;-77
2022/08/21 02:53:19;;;;;;;;;4.00;4.00;;;;;19.20;55.97;101461.00;5082596;27;45591;-77
2022/08/21 02:55:47;;;;;;;;;4.00;3.75;;;;;19.14;56.31;101454.28;5082696;27;45358;-77
2022/08/21 02:58:13;;;;;;;;;4.00;4.00;;;;;19.08;56.60;101445.84;5081239;27;45388;-76
2022/08/21 03:00:40;;;;;;;;;5.75;4.00;;;;;19.05;56.67;101456.56;5082464;27;45701;-76
2022/08/21 03:03:06;;;;;;;;;4.00;3.00;;;;;19.02;56.26;101449.66;5082968;27;45410;-76
2022/08/21 03:05:32;;;;;;;;;5.75;4.00;;;;;19.03;56.23;101453.16;5082539;27;45439;-77
2022/08/21 03:07:59;;;;;;;;;7.00;3.00;;;;;19.04;56.89;101458.34;5082739;27;46828;-77
2022/08/21 03:10:25;;;;;;;;;4.75;3.75;;;;;19.01;56.99;101455.88;5081267;27;45772;-77
2022/08/21 03:12:51;;;;;;;;;5.75;4.25;;;;;18.97;57.11;101443.78;5082735;27;45265;-77
2022/08/21 03:15:19;;;;;;;;;4.25;4.00;;;;;18.98;57.50;101453.41;5081394;28;45354;-77
2022/08/21 03:17:45;;;;;;;;;5.75;4.00;;;;;18.97;56.44;101450.84;5082348;27;46352;-76
2022/08/21 03:20:12;;;;;;;;;5.00;4.00;;;;;18.99;56.57;101448.97;5081216;28;45727;-76
2022/08/21 03:22:37;;;;;;;;;7.25;5.00;;;;;18.98;56.53;101444.63;5081505;28;45437;-77
2022/08/21 03:25:03;;;;;;;;;5.50;3.25;;;;;18.91;56.60;101433.56;5081791;27;63542;-77
2022/08/21 03:27:30;;;;;;;;;6.00;4.00;;;;;19.00;55.97;101438.34;5081054;28;46112;-77
2022/08/21 03:29:56;;;;;;;;;4.25;4.00;;;;;19.02;56.63;101443.53;5082013;27;45237;-77
2022/08/21 03:32:21;;;;;;;;;5.00;4.00;;;;;19.02;56.70;101433.84;5080927;27;45305;-77
2022/08/21 03:34:47;;;;;;;;;3.00;3.00;;;;;18.94;56.81;101413.16;5082451;27;45405;-77
2022/08/21 03:37:13;;;;;;;;;5.25;3.75;;;;;18.98;56.29;101416.47;5081343;27;65730;-77
2022/08/21 03:39:39;;;;;;;;;5.75;4.75;;;;;18.99;56.38;101414.69;5080735;27;45722;-77
2022/08/21 03:42:04;;;;;;;;;6.25;3.00;;;;;18.97;56.52;101406.00;5081501;28;59110;-76
2022/08/21 03:44:30;;;;;;;;;6.00;4.25;;;;;18.97;57.36;101408.63;5080908;27;45515;-76
2022/08/21 03:46:56;;;;;;;;;6.25;3.75;;;;;18.95;56.24;101404.28;5082163;27;46501;-76
2022/08/21 03:49:21;;;;;;;;;4.25;4.00;;;;;18.94;57.03;101404.34;5082007;27;45483;-77
2022/08/21 03:51:47;;;;;;;;;5.00;4.00;;;;;18.91;56.68;101400.13;5082148;27;45506;-77
2022/08/21 03:54:12;;;;;;;;;3.00;3.00;;;;;18.92;56.60;101404.44;5080546;28;67435;-77
2022/08/21 03:56:39;;;;;;;;;5.50;4.00;;;;;18.93;57.11;101413.22;5080516;27;45551;-76
2022/08/21 03:59:04;;;;;;;;;5.00;4.00;;;;;18.91;57.25;101409.81;5081095;27;45340;-77
2022/08/21 04:01:29;;;;;;;;;3.00;3.00;;;;;18.92;57.33;101411.50;5082106;27;45372;-76
2022/08/21 04:03:55;;;;;;;;;4.25;4.00;;;;;18.91;58.24;101412.47;5078033;27;45452;-76
2022/08/21 04:06:20;;;;;;;;;3.25;3.25;;;;;18.87;57.72;101403.84;5078615;27;46070;-77
2022/08/21 04:08:46;;;;;;;;;5.00;4.00;;;;;18.84;57.07;101401.38;5077987;28;45354;-76
2022/08/21 04:11:11;;;;;;;;;3.00;2.75;;;;;18.85;57.05;101402.22;5078824;27;45297;-76
2022/08/21 04:13:37;;;;;;;;;5.00;4.50;;;;;18.82;58.17;101405.88;5077342;28;45373;-76
2022/08/21 04:16:03;;;;;;;;;4.00;4.00;;;;;18.83;57.50;101412.00;5078178;28;45619;-76
2022/08/21 04:18:28;;;;;;;;;7.25;3.00;;;;;18.73;57.68;101401.91;5077400;27;45356;-77
2022/08/21 04:20:57;;;;;;;;;5.00;3.75;;;;;18.80;57.03;101418.25;5078338;27;45341;-77
2022/08/21 04:23:22;;;;;;;;;6.75;3.25;;;;;18.79;58.02;101420.97;5078032;27;45471;-77
2022/08/21 04:25:48;;;;;;;;;5.50;3.50;;;;;18.72;58.16;101425.72;5077833;27;45851;-77
2022/08/21 04:28:13;;;;;;;;;4.00;4.00;;;;;18.68;58.71;101419.75;5078126;28;45315;-77
2022/08/21 04:30:39;;;;;;;;;3.50;3.50;;;;;18.67;58.62;101433.03;5077196;27;68963;-78
2022/08/21 04:33:04;;;;;;;;;8.75;5.00;;;;;18.60;58.26;101427.22;5078002;27;45409;-77
2022/08/21 04:35:30;;;;;;;;;6.75;3.75;;;;;18.62;59.12;101437.69;5077544;27;46597;-77
2022/08/21 04:37:56;;;;;;;;;4.50;2.75;;;;;18.58;58.41;101431.72;5077828;27;45883;-77
2022/08/21 04:40:24;;;;;;;;;4.00;4.00;;;;;18.59;57.59;101436.06;5078088;27;45341;-77
2022/08/21 04:42:52;;;;;;;;;6.00;4.25;;;;;18.57;58.55;101433.50;5076750;27;45434;-76
2022/08/21 04:45:25;;;;;;;;;4.25;4.25;;;;;18.60;58.46;101432.47;5076622;27;47002;-77
2022/08/21 04:47:55;;;;;;;;;4.75;4.00;;;;;18.58;57.50;101426.44;5077729;27;45329;-77
2022/08/21 04:50:25;;;;;;;;;5.50;3.75;;;;;18.62;57.86;101435.88;5076917;27;45384;-77
2022/08/21 04:52:50;;;;;;;;;5.00;3.00;;;;;18.59;58.38;101430.78;5077382;27;45406;-77
2022/08/21 04:55:17;;;;;;;;;7.00;4.50;;;;;18.57;58.71;101437.91;5076435;27;74580;-77
2022/08/21 04:57:42;;;;;;;;;5.00;5.00;;;;;18.55;59.12;101434.50;5076320;27;45333;-77
2022/08/21 05:00:09;;;;;;;;;6.00;5.75;;;;;18.53;59.20;101437.19;5077960;28;45312;-77
2022/08/21 05:02:35;;;;;;;;;4.00;4.00;;;;;18.50;58.45;101437.38;5077597;27;45304;-77
2022/08/21 05:05:01;;;;;;;;;7.50;4.00;;;;;18.52;59.75;101445.22;5075220;27;75697;-77
2022/08/21 05:07:29;;;;;;;;;7.50;4.50;;;;;18.52;59.45;101445.22;5076123;28;45726;-77
2022/08/21 05:09:54;;;;;;;;;3.75;3.75;;;;;18.44;59.37;101442.09;5076376;28;45445;-76
2022/08/21 05:12:20;;;;;;;;;5.50;3.75;;;;;18.42;58.86;101430.78;5077698;28;45495;-77
2022/08/21 05:14:46;;;;;;;;;4.50;4.00;;;;;18.45;59.62;101428.84;5075976;28;46258;-77
2022/08/21 05:17:11;;;;;;;;;3.50;3.50;;;;;18.43;59.13;101427.22;5077337;27;45897;-77
2022/08/21 05:19:37;;;;;;;;;5.75;4.00;;;;;18.40;59.47;101425.59;5076583;27;68125;-77
2022/08/21 05:22:02;;;;;;;;;4.25;4.25;;;;;18.40;60.06;101424.75;5076150;28;63988;-77
2022/08/21 05:24:28;;;;;;;;;5.00;4.00;;;;;18.37;59.71;101441.56;5077026;27;45452;-77
2022/08/21 05:26:53;;;;;;;;;6.25;5.25;;;;;18.38;59.43;101440.63;5076290;27;72192;-77
2022/08/21 05:29:19;;;;;;;;;6.25;3.25;;;;;18.38;60.12;101441.47;5077275;28;45276;-77
2022/08/21 05:31:46;;;;;;;;;4.75;4.00;;;;;18.46;59.96;101442.88;5075788;28;45267;-77
2022/08/21 05:34:13;;;;;;;;;7.00;5.00;;;;;18.48;60.52;101439.25;5077214;27;47090;-77
2022/08/21 05:36:39;;;;;;;;;4.75;3.50;;;;;18.51;60.24;101446.97;5075517;27;45997;-77
2022/08/21 05:39:04;;;;;;;;;3.00;3.00;;;;;18.52;59.95;101434.66;5076174;28;67635;-77
2022/08/21 05:41:30;;;;;;;;;5.00;4.00;;;;;18.53;60.02;101441.63;5077192;28;45510;-76
2022/08/21 05:43:55;;;;;;;;;5.00;5.00;;;;;18.49;59.95;101443.56;5076018;27;70509;-76
2022/08/21 05:46:20;;;;;;;;;5.00;5.00;;;;;18.48;59.31;101441.00;5076982;28;45399;-77
2022/08/21 05:48:46;;;;;;;;;5.75;4.50;;;;;18.49;59.38;101440.94;5076613;28;46412;-76
2022/08/21 05:51:14;;;;;;;;;6.25;4.75;;;;;18.53;59.47;101444.25;5075609;28;65128;-76
2022/08/21 05:53:41;;;;;;;;;5.00;4.00;;;;;18.56;59.53;101449.41;5076377;27;46335;-77
2022/08/21 05:56:07;;;;;;;;;7.00;3.50;;;;;18.58;59.56;101447.53;5076746;27;45835;-77
2022/08/21 05:58:33;;;;;;;;;7.00;3.00;;;;;18.58;59.80;101444.88;5076710;27;45481;-77
2022/08/21 06:01:00;;;;;;;;;6.00;4.25;;;;;18.55;59.77;101434.50;5076639;27;45389;-77
2022/08/21 06:03:28;;;;;;;;;5.25;4.00;;;;;18.63;59.78;101444.63;5075421;28;45443;-76
2022/08/21 06:05:55;;;;;;;;;4.50;2.25;;;;;18.65;58.97;101451.56;5076272;27;45823;-77
2022/08/21 06:08:21;;;;;;;;;4.00;4.00;;;;;18.58;58.62;101435.19;5076750;27;45363;-77
2022/08/21 06:10:47;;;;;;;;;7.25;3.50;;;;;18.67;59.56;101444.41;5075627;28;45358;-77
2022/08/21 06:13:13;;;;;;;;;7.25;5.00;;;;;18.68;59.69;101453.19;5076677;27;46594;-77
2022/08/21 06:15:39;;;;;;;;;5.25;4.75;;;;;18.67;59.34;101452.31;5076552;28;45819;-77
2022/08/21 06:18:05;;;;;;;;;5.25;5.00;;;;;18.72;59.05;101449.44;5076223;28;45685;-77
2022/08/21 06:20:30;;;;;;;;;5.50;5.00;;;;;18.67;59.29;101433.88;5076189;27;45387;-76
2022/08/21 06:22:55;;;;;;;;;1.25;1.25;;;;;18.78;58.83;101454.41;5075155;28;45418;-77
2022/08/21 06:25:21;;;;;;;;;5.50;4.75;;;;;18.82;58.51;101444.59;5074769;27;70916;-76
2022/08/21 06:27:46;;;;;;;;;5.00;4.00;;;;;18.87;58.88;101445.19;5076459;27;45430;-77
2022/08/21 06:30:13;;;;;;;;;7.00;5.00;;;;;18.87;60.01;101445.19;5076244;28;45313;-76
2022/08/21 06:32:38;;;;;;;;;7.00;6.25;;;;;18.93;59.37;101440.44;5075757;27;45632;-76
2022/08/21 06:35:04;;;;;;;;;9.25;6.25;;;;;19.00;60.12;101442.75;5075120;27;59385;-76
2022/08/21 06:37:31;;;;;;;;;8.75;7.00;;;;;19.08;59.32;101448.50;5076457;27;45361;-76
2022/08/21 06:39:56;;;;;;;;;7.50;5.50;;;;;19.18;58.79;101444.41;5076210;27;45417;-76
2022/08/21 06:42:22;;;;;;;;;8.00;5.00;;;;;19.31;58.76;101432.25;5075347;28;72274;-77
2022/08/21 06:44:47;;;;;;;;;7.25;6.00;;;;;19.46;58.03;101421.78;5075265;27;72054;-76
2022/08/21 06:47:13;;;;;;;;;7.00;6.00;;;;;19.58;57.59;101428.19;5075380;28;61329;-76
2022/08/21 06:49:38;;;;;;;;;10.50;6.50;;;;;19.61;57.41;101418.28;5075110;28;62958;-76
2022/08/21 06:52:03;;;;;;;;;8.25;6.00;;;;;19.68;57.00;101430.19;5075799;27;46505;-76
2022/08/21 06:54:30;;;;;;;;;11.00;6.50;;;;;19.66;56.95;101424.16;5074296;28;45547;-76
2022/08/21 06:56:55;;;;;;;;;8.75;6.00;;;;;19.71;57.52;101424.75;5074915;28;45422;-77
2022/08/21 06:59:21;;;;;;;;;7.00;5.75;;;;;19.73;56.53;101420.28;5075836;28;45361;-76
2022/08/21 07:01:46;;;;;;;;;7.75;5.50;;;;;19.77;57.06;101422.75;5074977;28;70596;-76
2022/08/21 07:04:11;;;;;;;;;6.75;6.25;;;;;19.81;56.75;101425.13;5075014;28;54880;-76
2022/08/21 07:06:37;;;;;;;;;10.75;7.50;;;;;19.75;57.15;101416.72;5075520;28;56695;-77
2022/08/21 07:09:03;;;;;;;;;10.00;8.00;;;;;19.80;57.13;101419.91;5075859;28;45446;-77
2022/08/21 07:11:28;;;;;;;;;7.00;6.00;;;;;19.78;56.42;101417.38;5075613;28;46537;-76
2022/08/21 07:13:56;;;;;;;;;6.25;6.25;;;;;19.81;56.64;101419.84;5075396;27;49623;-76
2022/08/21 07:16:22;;;;;;;;;7.25;6.75;;;;;19.86;56.98;101422.22;5076080;27;45418;-76
2022/08/21 07:18:48;;;;;;;;;8.75;5.75;;;;;19.91;57.23;101422.81;5075379;27;45223;-76
2022/08/21 07:21:13;;;;;;;;;10.50;6.50;;;;;19.92;56.20;101413.94;5075477;27;46575;-76
2022/08/21 07:23:45;;;;;;;;;8.25;6.25;;;;;19.97;56.92;101418.97;5074210;27;45473;-76
2022/08/21 07:26:16;;;;;;;;;12.50;8.25;;;;;20.03;57.70;101421.25;5075708;27;45295;-76
2022/08/21 07:28:41;;;;;;;;;9.00;7.00;;;;;20.11;56.42;101419.88;5075909;27;45460;-77
2022/08/21 07:31:07;;;;;;;;;8.00;6.00;;;;;20.22;55.95;101418.38;5073813;27;68480;-77
2022/08/21 07:33:33;;;;;;;;;6.75;4.00;;;;;20.37;56.46;101421.91;5074168;28;45444;-76
2022/08/21 07:35:59;;;;;;;;;10.50;7.50;;;;;20.52;55.65;101414.84;5075694;27;45403;-76
2022/08/21 07:38:24;;;;;;;;;8.50;5.25;;;;;20.62;55.65;101421.34;5076319;28;70332;-77
2022/08/21 07:40:52;;;;;;;;;9.75;5.00;;;;;20.72;54.78;101417.19;5077865;27;45402;-77
2022/08/21 07:43:17;;;;;;;;;9.25;6.50;;;;;20.80;54.98;101411.41;5077956;27;45771;-77
2022/08/21 07:45:44;;;;;;;;;9.75;8.00;;;;;20.94;54.48;101418.53;5078851;27;45443;-77
2022/08/21 07:48:09;;;;;;;;;9.75;7.75;;;;;21.04;54.24;101419.63;5079502;27;45565;-76
2022/08/21 07:50:35;;;;;;;;;13.00;7.00;;;;;21.17;53.90;101420.59;5078646;27;47025;-77
2022/08/21 07:53:00;;;;;;;;;11.75;9.00;;;;;21.25;53.51;101414.81;5078739;27;45467;-77
2022/08/21 07:55:25;;;;;;;;;6.50;6.00;;;;;21.40;53.54;101418.28;5077538;27;68170;-76
2022/08/21 07:57:51;;;;;;;;;9.00;8.00;;;;;21.56;53.38;101416.38;5078964;27;45333;-76
2022/08/21 08:00:20;;;;;;;;;9.25;8.00;;;;;21.70;52.53;101407.53;5078944;28;45603;-76
2022/08/21 08:02:49;;;;;;;;;11.25;10.00;;;;;21.91;53.04;101407.06;5078570;27;45831;-76
2022/08/21 08:05:17;;;;;;;;;8.75;7.50;;;;;22.11;51.89;101405.75;5079002;27;45421;-76
2022/08/21 08:07:42;;;;;;;;;13.75;8.25;;;;;22.21;51.64;101399.72;5060328;28;45528;-76
2022/08/21 08:10:09;;;;;;;;;10.25;7.25;;;;;22.32;51.48;101404.31;5077560;28;75615;-77
2022/08/21 08:12:35;;;;;;;;;10.75;7.75;;;;;22.45;51.03;101403.47;5077339;28;45433;-77
2022/08/21 08:15:01;;;;;;;;;7.00;7.00;;;;;22.50;51.23;101399.56;5078372;27;45471;-76
2022/08/21 08:17:27;;;;;;;;;5.75;5.00;;;;;22.62;50.92;101392.53;5078877;27;45390;-77
2022/08/21 08:19:53;;;;;;;;;7.75;6.75;;;;;22.73;50.58;101397.09;5078372;28;45417;-77
2022/08/21 08:22:21;;;;;;;;;12.00;7.00;;;;;22.81;50.28;101400.94;5078354;27;45388;-77
2022/08/21 08:24:48;;;;;;;;;6.25;6.25;;;;;22.90;49.73;101395.91;5078707;27;45295;-76
2022/08/21 08:27:13;;;;;;;;;9.75;5.25;;;;;22.95;49.70;101397.28;5078546;27;45469;-77
2022/08/21 08:29:39;;;;;;;;;10.25;6.00;;;;;23.07;49.92;101402.72;5077978;27;45509;-76
2022/08/21 08:32:07;;;;;;;;;5.50;4.00;;;;;23.13;49.43;101392.53;5078321;27;45228;-76
2022/08/21 08:34:32;;;;;;;;;10.00;6.75;;;;;23.21;48.81;101405.25;5078104;27;45386;-76
2022/08/21 08:36:58;;;;;;;;;7.50;6.25;;;;;23.24;48.66;101402.38;5078477;28;45413;-77
2022/08/21 08:39:23;;;;;;;;;8.00;5.50;;;;;23.26;48.61;101399.63;5077733;28;46125;-77
2022/08/21 08:41:51;;;;;;;;;7.00;7.00;;;;;23.28;48.45;101392.38;5077239;27;68749;-76
2022/08/21 08:44:16;;;;;;;;;8.25;5.50;;;;;23.35;48.62;101391.00;5076714;28;45503;-77
2022/08/21 08:46:51;;;;;;;;;7.25;4.75;;;;;23.43;47.90;101393.91;5076154;27;69342;-77
2022/08/21 08:49:22;;;;;;;;;6.50;6.50;;;;;23.48;48.01;101378.50;5076587;27;46211;-77
2022/08/21 08:51:53;;;;;;;;;8.50;6.00;;;;;23.61;47.89;101385.56;5077858;27;45697;-76
2022/08/21 08:54:31;;;;;;;;;5.75;5.50;;;;;23.71;47.93;101383.91;5077941;28;45391;-77
2022/08/21 08:56:58;;;;;;;;;6.25;5.00;;;;;23.78;47.28;101380.69;5076856;28;45324;-77
2022/08/21 08:59:35;;;;;;;;;3.00;3.00;;;;;23.85;48.19;101373.16;5077826;27;46424;-76
2022/08/21 09:02:00;;;;;;;;;7.50;6.50;;;;;23.98;47.96;101386.38;5076037;27;45449;-76
2022/08/21 09:04:28;;;;;;;;;6.50;5.25;;;;;24.07;46.89;101379.47;5077350;28;67747;-76
2022/08/21 09:06:56;;;;;;;;;5.75;4.50;;;;;24.11;46.15;101373.81;5077553;27;45268;-76
2022/08/21 09:09:27;;;;;;;;;10.25;5.75;;;;;24.14;46.18;101368.28;5077722;27;46406;-77
2022/08/21 09:11:59;;;;;;;;;7.00;6.00;;;;;24.22;46.01;101365.03;5078003;27;45900;-77
2022/08/21 09:14:53;;;;;;;;;6.75;5.25;;;;;24.28;46.00;101361.88;5077753;27;45510;-77
2022/08/21 09:17:39;;;;;;;;;7.00;4.75;;;;;24.40;45.82;101361.91;5077451;27;45272;-77
2022/08/21 09:20:38;;;;;;;;;9.00;5.50;;;;;24.48;45.39;101360.34;5076036;27;45446;-77
2022/08/21 09:23:28;;;;;;;;;7.50;4.50;;;;;24.54;45.37;101354.56;5055500;28;45823;-76
2022/08/21 09:26:01;;;;;;;;;5.25;4.00;;;;;24.56;44.60;101362.44;5038375;28;45356;-77
2022/08/21 09:28:26;;;;;;;;;6.00;4.00;;;;;24.58;45.01;101357.84;5054552;28;45470;-77
2022/08/21 09:30:55;;;;;;;;;7.75;4.75;;;;;24.59;44.75;101358.69;5054710;28;45589;-77
2022/08/21 09:33:20;;;;;;;;;3.50;3.50;;;;;24.52;44.42;101359.16;5054252;28;45518;-76
2022/08/21 09:35:54;;;;;;;;;5.50;5.00;;;;;24.52;44.36;101353.00;5054443;28;45401;-77
2022/08/21 09:38:38;;;;;;;;;6.25;4.00;;;;;24.61;44.58;101359.41;5054962;28;45538;-77
2022/08/21 09:41:08;;;;;;;;;7.50;4.00;;;;;24.70;44.72;101361.34;5054230;28;46611;-77
2022/08/21 09:43:34;;;;;;;;;4.75;4.50;;;;;24.73;44.86;101361.94;5054058;28;45495;-77
2022/08/21 09:46:09;;;;;;;;;6.00;5.00;;;;;24.86;43.84;101363.66;5037915;28;45424;-77
2022/08/21 09:48:47;;;;;;;;;8.50;6.00;;;;;24.99;43.56;101356.38;5054552;28;45400;-77
2022/08/21 09:51:21;;;;;;;;;5.25;5.00;;;;;25.15;43.21;101352.44;5054247;28;45406;-77
2022/08/21 09:53:53;;;;;;;;;5.75;3.50;;;;;25.30;42.96;101348.59;5053965;28;45673;-77
2022/08/21 09:59:33;;;;;;;;;4.50;4.50;;;;;25.58;41.79;101336.50;5059009;28;45388;-77
2022/08/21 10:02:03;;;;;;;;;4.75;3.50;;;;;25.82;40.92;101330.94;5075476;27;46759;-77
2022/08/21 10:04:31;;;;;;;;;3.50;3.00;;;;;26.03;40.33;101325.63;5075736;28;45347;-77
2022/08/21 10:07:14;;;;;;;;;3.50;3.50;;;;;26.16;38.97;101313.91;5077202;27;45329;-77
2022/08/21 10:09:40;;;;;;;;;6.25;4.00;;;;;26.18;39.92;101319.97;5058815;28;45492;-77
2022/08/21 10:12:19;;;;;;;;;3.50;3.50;;;;;26.08;39.71;101307.41;5076399;27;46549;-77
2022/08/21 10:14:57;;;;;;;;;4.75;4.50;;;;;26.02;39.61;101309.75;5075656;28;45319;-77
2022/08/21 10:17:45;;;;;;;;;4.00;2.50;;;;;25.86;37.54;101312.84;5076816;27;45430;-77
2022/08/21 10:20:20;;;;;;;;;4.00;4.00;;;;;25.70;38.23;101318.63;5075638;28;45412;-77
2022/08/21 10:23:15;;;;;;;;;3.00;3.00;;;;;25.54;39.19;101300.41;5076315;28;46363;-77
2022/08/21 10:25:51;;;;;;;;;7.25;3.50;;;;;25.48;38.75;101291.13;5074757;28;45807;-77
2022/08/21 10:28:20;;;;;;;;;4.00;4.00;;;;;25.46;39.47;101289.53;5075386;27;45452;-77
2022/08/21 10:31:00;;;;;;;;;5.00;3.75;;;;;25.47;38.99;101299.22;5076386;27;45404;-77
2022/08/21 10:33:58;;;;;;;;;4.25;3.75;;;;;25.58;39.59;101301.00;5076140;27;46489;-77
2022/08/21 10:36:33;;;;;;;;;4.25;2.75;;;;;25.71;40.04;101306.16;4993673;28;45683;-77
2022/08/21 10:39:17;;;;;;;;;3.50;3.00;;;;;25.88;39.54;101311.72;4978313;28;45381;-77
2022/08/21 10:42:07;;;;;;;;;3.50;2.25;;;;;26.06;39.05;101289.84;4977375;28;45369;-76
2022/08/21 10:44:59;;;;;;;;;3.25;3.25;;;;;26.32;39.04;101284.06;4977328;28;46243;-77
2022/08/21 10:47:53;;;;;;;;;4.50;3.75;;;;;26.61;38.25;101271.69;4977633;28;48184;-77
2022/08/21 10:50:54;;;;;;;;;6.75;3.00;;;;;27.00;37.92;101260.25;4977379;28;45470;-77
2022/08/21 10:53:25;;;;;;;;;3.00;3.00;;;;;27.22;37.65;101262.66;4989811;28;46082;-77
2022/08/21 10:55:56;;;;;;;;;3.75;3.00;;;;;27.34;37.44;101274.09;4993239;28;45325;-77
2022/08/21 10:58:34;;;;;;;;;6.50;3.50;;;;;27.38;36.19;101280.00;4977229;28;45429;-77
2022/08/21 11:01:33;;;;;;;;;4.00;3.00;;;;;27.49;37.30;101284.34;4977537;28;45457;-77
2022/08/21 11:04:26;;;;;;;;;4.00;3.00;;;;;27.69;37.27;101282.50;4993611;28;45348;-77
2022/08/21 11:06:58;;;;;;;;;1.00;0.75;;;;;27.73;36.69;101290.13;4985618;28;45407;-77
2022/08/21 11:09:25;;;;;;;;;5.50;3.75;;;;;27.66;35.83;101288.16;4976555;28;45492;-77
2022/08/21 11:12:03;;;;;;;;;10.25;4.25;;;;;27.55;36.62;101292.66;5004559;28;45484;-77
2022/08/21 11:14:41;;;;;;;;;3.75;2.75;;;;;27.60;36.52;101301.09;5078308;27;45381;-77
2022/08/21 11:17:11;;;;;;;;;4.75;3.00;;;;;27.73;37.12;101305.28;5079297;27;46726;-77
2022/08/21 11:19:53;;;;;;;;;3.75;3.75;;;;;27.89;36.76;101307.41;5061222;28;45833;-77
2022/08/21 11:22:23;;;;;;;;;3.00;3.00;;;;;28.20;35.86;101297.34;5077801;27;45450;-77
2022/08/21 11:25:21;;;;;;;;;3.00;3.00;;;;;28.67;36.02;101299.16;5079002;27;45268;-77
2022/08/21 11:27:52;;;;;;;;;5.25;4.00;;;;;29.15;33.33;101298.84;5077618;28;46188;-77
2022/08/21 11:30:18;;;;;;;;;5.00;3.00;;;;;29.44;32.61;101291.56;5078032;28;45730;-77
2022/08/21 11:33:41;;;;;;;;;3.25;2.25;;;;;29.81;33.07;101299.47;5077219;27;48896;-77
2022/08/21 11:36:27;;;;;;;;;4.00;2.25;;;;;30.29;31.72;101305.28;5016370;28;45449;-77